Mariq — SVA2152 — position and weather

sailwx.info

Track history (hours):
 
Tides and Currents Weather Stations Pressure Air Temp Water Temp Dewpoint Dewpoint Depression Visibility Wind Speed Wind Dir Waves Ship Positions

Mariq

Last reported at 2017-Aug-18 03:00 UTC. Time now 2017-Aug-18 03:01 UTC.
Position N 37°20' E 025°18'.

Length 57 m.

Type: Tanker. MMSI: 239758424.

Date/timePositionNaut miles runAvg speedWind from/ knotsBaromVisibWave heightAir tempDewpointWater temp
2017-Aug-18 03:00N 37°20' E 025°18'4 8.9
2017-Aug-18 02:30N 37°20' E 025°12'4 8.9
2017-Aug-18 02:00N 37°20' E 025°06'4 8.6
2017-Aug-18 01:30N 37°20' E 025°01'4 8.6
2017-Aug-18 01:00N 37°21' E 024°56'4 8.7
2017-Aug-18 00:30N 37°22' E 024°50'4 9.0
2017-Aug-18 00:00N 37°23' E 024°45'1 0.0
2017-Aug-17 06:12N 37°23' E 024°44'2 8.8
2017-Aug-17 06:00N 37°23' E 024°46'5 9.1
2017-Aug-17 05:30N 37°21' E 024°51'5 9.7
2017-Aug-17 05:00N 37°20' E 024°57'510.1
2017-Aug-17 04:29N 37°20' E 025°04'5 9.6
2017-Aug-17 04:00N 37°20' E 025°09'5 9.3
2017-Aug-17 03:30N 37°20' E 025°15'5 9.6
2017-Aug-17 03:00N 37°21' E 025°21'5 9.9
2017-Aug-17 02:30N 37°22' E 025°27'5 9.7
2017-Aug-17 02:00N 37°23' E 025°33'5 9.4
2017-Aug-17 01:30N 37°24' E 025°39'5 8.4
2017-Aug-17 00:56N 37°24' E 025°45'4 8.6
2017-Aug-17 00:30N 37°23' E 025°49'4 8.5
2017-Aug-17 00:00N 37°21' E 025°54'  
Track history (hours):
 
Tides and Currents Weather Stations Pressure Air Temp Water Temp Dewpoint Dewpoint Depression Visibility Wind Speed Wind Dir Waves Ship Positions

Mariq

Last reported at 2017-Aug-18 03:00 UTC. Time now 2017-Aug-18 03:01 UTC.
Position N 37°20' E 025°18'.

Length 57 m.

Type: Tanker. MMSI: 239758424.

Date/timePositionNaut miles runAvg speedWind from/ knotsBaromVisibWave heightAir tempDewpointWater temp
2017-Aug-18 03:00N 37°20' E 025°18'4 8.9
2017-Aug-18 02:30N 37°20' E 025°12'4 8.9
2017-Aug-18 02:00N 37°20' E 025°06'4 8.6
2017-Aug-18 01:30N 37°20' E 025°01'4 8.6
2017-Aug-18 01:00N 37°21' E 024°56'4 8.7
2017-Aug-18 00:30N 37°22' E 024°50'4 9.0
2017-Aug-18 00:00N 37°23' E 024°45'1 0.0
2017-Aug-17 06:12N 37°23' E 024°44'2 8.8
2017-Aug-17 06:00N 37°23' E 024°46'5 9.1
2017-Aug-17 05:30N 37°21' E 024°51'5 9.7
2017-Aug-17 05:00N 37°20' E 024°57'510.1
2017-Aug-17 04:29N 37°20' E 025°04'5 9.6
2017-Aug-17 04:00N 37°20' E 025°09'5 9.3
2017-Aug-17 03:30N 37°20' E 025°15'5 9.6
2017-Aug-17 03:00N 37°21' E 025°21'5 9.9
2017-Aug-17 02:30N 37°22' E 025°27'5 9.7
2017-Aug-17 02:00N 37°23' E 025°33'5 9.4
2017-Aug-17 01:30N 37°24' E 025°39'5 8.4
2017-Aug-17 00:56N 37°24' E 025°45'4 8.6
2017-Aug-17 00:30N 37°23' E 025°49'4 8.5
2017-Aug-17 00:00N 37°21' E 025°54'  

Dump ship's entire track history